sensor_id;sensor_type;location;lat;lon;timestamp;temperature;humidity
49855;DHT22;35752;52.164;21.244;2023-03-24T00:02:09;12.70;99.90
49855;DHT22;35752;52.164;21.244;2023-03-24T00:04:35;12.60;99.90
49855;DHT22;35752;52.164;21.244;2023-03-24T00:07:01;12.70;99.90
49855;DHT22;35752;52.164;21.244;2023-03-24T00:09:29;12.70;99.90
49855;DHT22;35752;52.164;21.244;2023-03-24T00:11:56;12.70;99.90
49855;DHT22;35752;52.164;21.244;2023-03-24T00:14:22;12.70;99.90
49855;DHT22;35752;52.164;21.244;2023-03-24T00:16:48;12.70;99.90
49855;DHT22;35752;52.164;21.244;2023-03-24T00:19:15;12.70;99.90
49855;DHT22;35752;52.164;21.244;2023-03-24T00:21:41;12.60;99.90
49855;DHT22;35752;52.164;21.244;2023-03-24T00:24:07;12.50;99.90
49855;DHT22;35752;52.164;21.244;2023-03-24T00:26:35;12.50;99.90
49855;DHT22;35752;52.164;21.244;2023-03-24T00:29:03;12.50;99.90
49855;DHT22;35752;52.164;21.244;2023-03-24T00:31:29;12.50;99.90
49855;DHT22;35752;52.164;21.244;2023-03-24T00:33:55;12.50;99.90
49855;DHT22;35752;52.164;21.244;2023-03-24T00:36:23;12.50;99.90
49855;DHT22;35752;52.164;21.244;2023-03-24T00:38:50;12.50;99.90
49855;DHT22;35752;52.164;21.244;2023-03-24T00:41:17;12.50;99.90
49855;DHT22;35752;52.164;21.244;2023-03-24T00:43:46;12.30;99.90
49855;DHT22;35752;52.164;21.244;2023-03-24T00:46:13;12.40;99.90
49855;DHT22;35752;52.164;21.244;2023-03-24T00:49:01;12.40;99.90
49855;DHT22;35752;52.164;21.244;2023-03-24T00:51:32;12.40;99.90
49855;DHT22;35752;52.164;21.244;2023-03-24T00:53:58;12.40;99.90
49855;DHT22;35752;52.164;21.244;2023-03-24T00:56:25;12.20;99.90
49855;DHT22;35752;52.164;21.244;2023-03-24T00:58:52;12.20;99.90
49855;DHT22;35752;52.164;21.244;2023-03-24T01:01:19;12.10;99.90
49855;DHT22;35752;52.164;21.244;2023-03-24T01:03:47;12.00;99.90
49855;DHT22;35752;52.164;21.244;2023-03-24T01:06:15;12.00;99.90
49855;DHT22;35752;52.164;21.244;2023-03-24T01:08:42;11.90;99.90
49855;DHT22;35752;52.164;21.244;2023-03-24T01:11:08;11.80;99.90
49855;DHT22;35752;52.164;21.244;2023-03-24T01:13:34;11.70;99.90
49855;DHT22;35752;52.164;21.244;2023-03-24T01:16:00;11.60;99.90
49855;DHT22;35752;52.164;21.244;2023-03-24T01:18:26;11.60;99.90
49855;DHT22;35752;52.164;21.244;2023-03-24T01:20:52;11.60;99.90
49855;DHT22;35752;52.164;21.244;2023-03-24T01:23:21;11.50;99.90
49855;DHT22;35752;52.164;21.244;2023-03-24T01:25:48;11.40;99.90
49855;DHT22;35752;52.164;21.244;2023-03-24T01:28:17;11.40;99.90
49855;DHT22;35752;52.164;21.244;2023-03-24T01:30:43;11.40;99.90
49855;DHT22;35752;52.164;21.244;2023-03-24T01:33:09;11.40;99.90
49855;DHT22;35752;52.164;21.244;2023-03-24T01:35:35;11.30;99.90
49855;DHT22;35752;52.164;21.244;2023-03-24T01:38:08;11.20;99.90
49855;DHT22;35752;52.164;21.244;2023-03-24T01:40:35;11.20;99.90
49855;DHT22;35752;52.164;21.244;2023-03-24T01:43:03;11.10;99.90
49855;DHT22;35752;52.164;21.244;2023-03-24T01:48:08;11.00;99.90
49855;DHT22;35752;52.164;21.244;2023-03-24T01:50:35;11.00;99.90
49855;DHT22;35752;52.164;21.244;2023-03-24T01:53:01;10.80;99.90
49855;DHT22;35752;52.164;21.244;2023-03-24T01:55:29;10.80;99.90
49855;DHT22;35752;52.164;21.244;2023-03-24T01:57:58;10.70;99.90
49855;DHT22;35752;52.164;21.244;2023-03-24T02:00:25;10.70;99.90
49855;DHT22;35752;52.164;21.244;2023-03-24T02:03:01;10.70;99.90
49855;DHT22;35752;52.164;21.244;2023-03-24T02:05:32;10.70;99.90
49855;DHT22;35752;52.164;21.244;2023-03-24T02:08:33;10.60;99.90
49855;DHT22;35752;52.164;21.244;2023-03-24T02:11:01;10.50;99.90
49855;DHT22;35752;52.164;21.244;2023-03-24T02:13:26;10.20;99.90
49855;DHT22;35752;52.164;21.244;2023-03-24T02:50:05;9.20;99.90
49855;DHT22;35752;52.164;21.244;2023-03-24T02:52:46;9.20;99.90
49855;DHT22;35752;52.164;21.244;2023-03-24T02:58:06;8.90;99.90
49855;DHT22;35752;52.164;21.244;2023-03-24T03:00:49;9.00;99.90
49855;DHT22;35752;52.164;21.244;2023-03-24T03:03:22;8.80;99.90
49855;DHT22;35752;52.164;21.244;2023-03-24T03:05:58;8.70;99.90
49855;DHT22;35752;52.164;21.244;2023-03-24T03:08:27;8.60;99.90
49855;DHT22;35752;52.164;21.244;2023-03-24T03:10:55;8.60;99.90
49855;DHT22;35752;52.164;21.244;2023-03-24T03:13:31;8.70;99.90
49855;DHT22;35752;52.164;21.244;2023-03-24T03:16:03;8.70;99.90
49855;DHT22;35752;52.164;21.244;2023-03-24T03:18:52;8.70;99.90
49855;DHT22;35752;52.164;21.244;2023-03-24T03:21:18;8.60;99.90
49855;DHT22;35752;52.164;21.244;2023-03-24T03:23:53;8.60;99.90
49855;DHT22;35752;52.164;21.244;2023-03-24T03:26:22;8.40;99.90
49855;DHT22;35752;52.164;21.244;2023-03-24T03:28:52;8.40;99.90
49855;DHT22;35752;52.164;21.244;2023-03-24T03:31:30;8.30;99.90
49855;DHT22;35752;52.164;21.244;2023-03-24T03:34:28;8.30;99.90
49855;DHT22;35752;52.164;21.244;2023-03-24T03:37:08;8.30;99.90
49855;DHT22;35752;52.164;21.244;2023-03-24T03:39:44;8.30;99.90
49855;DHT22;35752;52.164;21.244;2023-03-24T03:42:12;8.30;99.90
49855;DHT22;35752;52.164;21.244;2023-03-24T03:44:38;8.30;99.90
49855;DHT22;35752;52.164;21.244;2023-03-24T03:47:03;8.30;99.90
49855;DHT22;35752;52.164;21.244;2023-03-24T03:49:29;8.10;99.90
49855;DHT22;35752;52.164;21.244;2023-03-24T03:51:55;8.10;99.90
49855;DHT22;35752;52.164;21.244;2023-03-24T03:54:22;8.20;99.90
49855;DHT22;35752;52.164;21.244;2023-03-24T03:56:48;8.00;99.90
49855;DHT22;35752;52.164;21.244;2023-03-24T03:59:29;8.00;99.90
49855;DHT22;35752;52.164;21.244;2023-03-24T04:01:55;8.00;99.90
49855;DHT22;35752;52.164;21.244;2023-03-24T04:12:47;8.10;99.90
49855;DHT22;35752;52.164;21.244;2023-03-24T04:20:50;7.90;99.90
49855;DHT22;35752;52.164;21.244;2023-03-24T04:23:32;7.90;99.90
49855;DHT22;35752;52.164;21.244;2023-03-24T04:28:59;8.00;99.90
49855;DHT22;35752;52.164;21.244;2023-03-24T04:31:33;8.10;99.90
49855;DHT22;35752;52.164;21.244;2023-03-24T04:34:10;8.10;99.90
49855;DHT22;35752;52.164;21.244;2023-03-24T04:36:46;8.00;99.90
49855;DHT22;35752;52.164;21.244;2023-03-24T04:39:19;8.10;99.90
49855;DHT22;35752;52.164;21.244;2023-03-24T04:41:54;8.10;99.90
49855;DHT22;35752;52.164;21.244;2023-03-24T04:44:21;8.10;99.90
49855;DHT22;35752;52.164;21.244;2023-03-24T04:46:49;8.10;99.90
49855;DHT22;35752;52.164;21.244;2023-03-24T04:49:16;8.00;99.90
49855;DHT22;35752;52.164;21.244;2023-03-24T04:51:44;7.90;99.90
49855;DHT22;35752;52.164;21.244;2023-03-24T04:54:10;7.80;99.90
49855;DHT22;35752;52.164;21.244;2023-03-24T04:56:52;7.80;99.90
49855;DHT22;35752;52.164;21.244;2023-03-24T04:59:19;8.00;99.90
49855;DHT22;35752;52.164;21.244;2023-03-24T05:01:45;8.00;99.90
49855;DHT22;35752;52.164;21.244;2023-03-24T05:04:21;8.00;99.90
49855;DHT22;35752;52.164;21.244;2023-03-24T05:06:47;8.10;99.90
49855;DHT22;35752;52.164;21.244;2023-03-24T05:09:17;8.10;99.90
49855;DHT22;35752;52.164;21.244;2023-03-24T05:11:46;8.20;99.90
49855;DHT22;35752;52.164;21.244;2023-03-24T05:14:11;8.20;99.90
49855;DHT22;35752;52.164;21.244;2023-03-24T05:16:37;8.20;99.90
49855;DHT22;35752;52.164;21.244;2023-03-24T05:19:03;8.30;99.90
49855;DHT22;35752;52.164;21.244;2023-03-24T05:21:29;8.30;99.90
49855;DHT22;35752;52.164;21.244;2023-03-24T05:23:55;8.30;99.90
49855;DHT22;35752;52.164;21.244;2023-03-24T05:26:21;8.40;99.90
49855;DHT22;35752;52.164;21.244;2023-03-24T05:28:47;8.50;99.90
49855;DHT22;35752;52.164;21.244;2023-03-24T05:31:12;8.60;99.90
49855;DHT22;35752;52.164;21.244;2023-03-24T05:33:38;8.60;99.90
49855;DHT22;35752;52.164;21.244;2023-03-24T05:36:03;8.80;99.90
49855;DHT22;35752;52.164;21.244;2023-03-24T05:38:29;8.90;99.90
49855;DHT22;35752;52.164;21.244;2023-03-24T05:40:57;9.00;99.90
49855;DHT22;35752;52.164;21.244;2023-03-24T05:43:22;9.20;99.90
49855;DHT22;35752;52.164;21.244;2023-03-24T05:45:48;9.20;99.90
49855;DHT22;35752;52.164;21.244;2023-03-24T05:48:13;9.30;99.90
49855;DHT22;35752;52.164;21.244;2023-03-24T05:50:39;9.40;99.90
49855;DHT22;35752;52.164;21.244;2023-03-24T05:53:04;9.50;99.90
49855;DHT22;35752;52.164;21.244;2023-03-24T05:55:30;9.50;99.90
49855;DHT22;35752;52.164;21.244;2023-03-24T05:57:56;9.60;99.90
49855;DHT22;35752;52.164;21.244;2023-03-24T06:00:22;9.70;99.90
49855;DHT22;35752;52.164;21.244;2023-03-24T06:02:47;9.80;99.90
49855;DHT22;35752;52.164;21.244;2023-03-24T06:05:13;9.90;99.90
49855;DHT22;35752;52.164;21.244;2023-03-24T06:07:40;10.00;99.90
49855;DHT22;35752;52.164;21.244;2023-03-24T06:10:11;10.00;99.90
49855;DHT22;35752;52.164;21.244;2023-03-24T06:12:39;10.10;99.90
49855;DHT22;35752;52.164;21.244;2023-03-24T06:15:06;10.20;99.90
49855;DHT22;35752;52.164;21.244;2023-03-24T06:17:32;10.30;99.90
49855;DHT22;35752;52.164;21.244;2023-03-24T06:19:58;10.40;99.90
49855;DHT22;35752;52.164;21.244;2023-03-24T06:22:31;10.40;99.90
49855;DHT22;35752;52.164;21.244;2023-03-24T06:24:57;10.60;99.90
49855;DHT22;35752;52.164;21.244;2023-03-24T06:27:24;10.60;99.90
49855;DHT22;35752;52.164;21.244;2023-03-24T06:29:51;10.70;99.90
49855;DHT22;35752;52.164;21.244;2023-03-24T06:32:18;10.70;99.90
49855;DHT22;35752;52.164;21.244;2023-03-24T06:34:44;10.80;99.90
49855;DHT22;35752;52.164;21.244;2023-03-24T06:37:10;11.00;99.90
49855;DHT22;35752;52.164;21.244;2023-03-24T06:39:36;11.00;99.90
49855;DHT22;35752;52.164;21.244;2023-03-24T06:42:02;11.10;99.90
49855;DHT22;35752;52.164;21.244;2023-03-24T06:44:28;11.10;99.90
49855;DHT22;35752;52.164;21.244;2023-03-24T06:46:53;11.30;99.90
49855;DHT22;35752;52.164;21.244;2023-03-24T06:49:19;11.30;99.90
49855;DHT22;35752;52.164;21.244;2023-03-24T06:51:45;11.40;99.90
49855;DHT22;35752;52.164;21.244;2023-03-24T06:54:11;11.40;99.90
49855;DHT22;35752;52.164;21.244;2023-03-24T06:56:37;11.50;99.90
49855;DHT22;35752;52.164;21.244;2023-03-24T06:59:03;11.60;99.90
49855;DHT22;35752;52.164;21.244;2023-03-24T07:01:29;11.60;99.90
49855;DHT22;35752;52.164;21.244;2023-03-24T07:03:54;11.60;99.90
49855;DHT22;35752;52.164;21.244;2023-03-24T07:06:21;11.80;99.90
49855;DHT22;35752;52.164;21.244;2023-03-24T07:08:47;11.80;99.90
49855;DHT22;35752;52.164;21.244;2023-03-24T07:11:13;11.90;99.90
49855;DHT22;35752;52.164;21.244;2023-03-24T07:13:40;12.00;99.90
49855;DHT22;35752;52.164;21.244;2023-03-24T07:16:06;12.00;99.90
49855;DHT22;35752;52.164;21.244;2023-03-24T07:18:32;12.00;99.90
49855;DHT22;35752;52.164;21.244;2023-03-24T07:20:57;12.10;99.90
49855;DHT22;35752;52.164;21.244;2023-03-24T07:23:23;12.00;99.90
49855;DHT22;35752;52.164;21.244;2023-03-24T07:25:50;12.10;99.90
49855;DHT22;35752;52.164;21.244;2023-03-24T07:28:15;12.20;99.90
49855;DHT22;35752;52.164;21.244;2023-03-24T07:30:41;12.30;99.90
49855;DHT22;35752;52.164;21.244;2023-03-24T07:33:08;12.30;99.90
49855;DHT22;35752;52.164;21.244;2023-03-24T07:35:37;12.40;99.90
49855;DHT22;35752;52.164;21.244;2023-03-24T07:38:03;12.40;99.90
49855;DHT22;35752;52.164;21.244;2023-03-24T07:40:29;12.40;99.90
49855;DHT22;35752;52.164;21.244;2023-03-24T07:42:58;12.40;99.90
49855;DHT22;35752;52.164;21.244;2023-03-24T07:45:24;12.50;99.90
49855;DHT22;35752;52.164;21.244;2023-03-24T07:47:50;12.50;99.90
49855;DHT22;35752;52.164;21.244;2023-03-24T07:50:16;12.40;99.90
49855;DHT22;35752;52.164;21.244;2023-03-24T07:52:46;12.50;99.90
49855;DHT22;35752;52.164;21.244;2023-03-24T07:55:12;12.60;99.90
49855;DHT22;35752;52.164;21.244;2023-03-24T07:57:41;12.60;99.90
49855;DHT22;35752;52.164;21.244;2023-03-24T08:00:08;12.70;99.90
49855;DHT22;35752;52.164;21.244;2023-03-24T08:02:49;12.60;99.90
49855;DHT22;35752;52.164;21.244;2023-03-24T08:05:17;12.70;99.90
49855;DHT22;35752;52.164;21.244;2023-03-24T08:07:45;12.70;99.90
49855;DHT22;35752;52.164;21.244;2023-03-24T08:10:19;12.70;99.90
49855;DHT22;35752;52.164;21.244;2023-03-24T08:12:46;12.80;99.90
49855;DHT22;35752;52.164;21.244;2023-03-24T08:15:12;12.70;99.90
49855;DHT22;35752;52.164;21.244;2023-03-24T08:17:39;12.70;99.90
49855;DHT22;35752;52.164;21.244;2023-03-24T08:20:06;12.70;99.90
49855;DHT22;35752;52.164;21.244;2023-03-24T08:22:51;12.70;99.90
49855;DHT22;35752;52.164;21.244;2023-03-24T08:25:19;12.70;99.90
49855;DHT22;35752;52.164;21.244;2023-03-24T08:27:46;12.70;99.90
49855;DHT22;35752;52.164;21.244;2023-03-24T08:30:20;12.70;99.90
49855;DHT22;35752;52.164;21.244;2023-03-24T08:32:48;12.60;99.90
49855;DHT22;35752;52.164;21.244;2023-03-24T08:35:16;12.70;99.90
49855;DHT22;35752;52.164;21.244;2023-03-24T08:37:41;12.90;99.90
49855;DHT22;35752;52.164;21.244;2023-03-24T08:40:13;12.90;99.90
49855;DHT22;35752;52.164;21.244;2023-03-24T08:42:41;13.00;99.90
49855;DHT22;35752;52.164;21.244;2023-03-24T08:45:10;13.00;99.90
49855;DHT22;35752;52.164;21.244;2023-03-24T08:47:37;13.00;99.90
49855;DHT22;35752;52.164;21.244;2023-03-24T08:50:03;13.10;99.90
49855;DHT22;35752;52.164;21.244;2023-03-24T08:52:29;13.20;99.90
49855;DHT22;35752;52.164;21.244;2023-03-24T08:54:56;13.20;99.90
49855;DHT22;35752;52.164;21.244;2023-03-24T08:57:21;13.30;99.90
49855;DHT22;35752;52.164;21.244;2023-03-24T08:59:47;13.30;99.90
49855;DHT22;35752;52.164;21.244;2023-03-24T09:02:13;13.20;99.90
49855;DHT22;35752;52.164;21.244;2023-03-24T09:04:38;13.20;99.90
49855;DHT22;35752;52.164;21.244;2023-03-24T09:07:04;13.20;99.90
49855;DHT22;35752;52.164;21.244;2023-03-24T09:09:30;13.20;99.90
49855;DHT22;35752;52.164;21.244;2023-03-24T09:11:57;13.10;99.90
49855;DHT22;35752;52.164;21.244;2023-03-24T09:14:23;13.10;99.90
49855;DHT22;35752;52.164;21.244;2023-03-24T09:16:48;13.10;99.90
49855;DHT22;35752;52.164;21.244;2023-03-24T09:19:15;13.10;99.90
49855;DHT22;35752;52.164;21.244;2023-03-24T09:21:46;13.20;99.90
49855;DHT22;35752;52.164;21.244;2023-03-24T09:24:13;13.30;99.90
49855;DHT22;35752;52.164;21.244;2023-03-24T09:26:39;13.30;99.90
49855;DHT22;35752;52.164;21.244;2023-03-24T09:29:05;13.40;99.90
49855;DHT22;35752;52.164;21.244;2023-03-24T09:31:30;13.50;99.90
49855;DHT22;35752;52.164;21.244;2023-03-24T09:33:56;13.60;99.90
49855;DHT22;35752;52.164;21.244;2023-03-24T09:36:22;13.90;99.90
49855;DHT22;35752;52.164;21.244;2023-03-24T09:38:48;14.00;99.90
49855;DHT22;35752;52.164;21.244;2023-03-24T09:41:25;14.10;99.90
49855;DHT22;35752;52.164;21.244;2023-03-24T09:49:22;14.50;99.90
49855;DHT22;35752;52.164;21.244;2023-03-24T09:51:52;14.70;99.90
49855;DHT22;35752;52.164;21.244;2023-03-24T09:56:47;15.00;99.90
49855;DHT22;35752;52.164;21.244;2023-03-24T10:01:54;15.30;99.90
49855;DHT22;35752;52.164;21.244;2023-03-24T10:04:24;15.40;99.90
49855;DHT22;35752;52.164;21.244;2023-03-24T10:07:06;15.60;99.90
49855;DHT22;35752;52.164;21.244;2023-03-24T10:09:34;15.60;99.90
49855;DHT22;35752;52.164;21.244;2023-03-24T10:17:37;15.80;99.90
49855;DHT22;35752;52.164;21.244;2023-03-24T10:28:24;16.30;99.90
49855;DHT22;35752;52.164;21.244;2023-03-24T10:30:53;16.20;99.90
49855;DHT22;35752;52.164;21.244;2023-03-24T10:33:20;16.10;99.90
49855;DHT22;35752;52.164;21.244;2023-03-24T10:36:04;16.20;99.90
49855;DHT22;35752;52.164;21.244;2023-03-24T10:38:30;16.10;99.90
49855;DHT22;35752;52.164;21.244;2023-03-24T10:40:56;16.00;99.90
49855;DHT22;35752;52.164;21.244;2023-03-24T10:43:25;15.90;99.90
49855;DHT22;35752;52.164;21.244;2023-03-24T10:45:52;15.90;99.90
49855;DHT22;35752;52.164;21.244;2023-03-24T10:51:19;15.90;99.90
49855;DHT22;35752;52.164;21.244;2023-03-24T10:53:46;16.00;99.90
49855;DHT22;35752;52.164;21.244;2023-03-24T10:56:20;16.00;99.90
49855;DHT22;35752;52.164;21.244;2023-03-24T10:59:01;16.00;99.90
49855;DHT22;35752;52.164;21.244;2023-03-24T11:01:28;15.90;99.90
49855;DHT22;35752;52.164;21.244;2023-03-24T11:04:00;15.90;99.90
49855;DHT22;35752;52.164;21.244;2023-03-24T11:06:30;15.90;99.90
49855;DHT22;35752;52.164;21.244;2023-03-24T11:11:41;15.80;99.90
49855;DHT22;35752;52.164;21.244;2023-03-24T11:14:24;15.80;99.90
49855;DHT22;35752;52.164;21.244;2023-03-24T11:16:53;15.70;99.90
49855;DHT22;35752;52.164;21.244;2023-03-24T11:19:25;15.70;99.90
49855;DHT22;35752;52.164;21.244;2023-03-24T11:21:58;15.70;99.90
49855;DHT22;35752;52.164;21.244;2023-03-24T11:24:27;15.70;99.90
49855;DHT22;35752;52.164;21.244;2023-03-24T11:26:59;15.60;99.90
49855;DHT22;35752;52.164;21.244;2023-03-24T11:29:27;15.60;99.90
49855;DHT22;35752;52.164;21.244;2023-03-24T11:32:02;15.70;99.90
49855;DHT22;35752;52.164;21.244;2023-03-24T11:34:30;15.70;99.90
49855;DHT22;35752;52.164;21.244;2023-03-24T11:37:12;15.70;99.90
49855;DHT22;35752;52.164;21.244;2023-03-24T11:39:38;15.80;99.90
49855;DHT22;35752;52.164;21.244;2023-03-24T11:47:16;15.90;99.90
49855;DHT22;35752;52.164;21.244;2023-03-24T11:49:49;15.90;99.90
49855;DHT22;35752;52.164;21.244;2023-03-24T11:52:24;16.00;99.90
49855;DHT22;35752;52.164;21.244;2023-03-24T11:54:52;16.00;99.90
49855;DHT22;35752;52.164;21.244;2023-03-24T11:58:07;16.00;99.90
49855;DHT22;35752;52.164;21.244;2023-03-24T12:00:26;16.00;99.90
49855;DHT22;35752;52.164;21.244;2023-03-24T12:05:41;16.00;99.90
49855;DHT22;35752;52.164;21.244;2023-03-24T12:11:13;16.00;99.90
49855;DHT22;35752;52.164;21.244;2023-03-24T12:13:47;16.00;99.90
49855;DHT22;35752;52.164;21.244;2023-03-24T12:16:23;16.10;99.90
49855;DHT22;35752;52.164;21.244;2023-03-24T12:26:57;16.40;99.90
49855;DHT22;35752;52.164;21.244;2023-03-24T12:32:05;16.50;99.90
49855;DHT22;35752;52.164;21.244;2023-03-24T12:35:05;16.60;99.90
49855;DHT22;35752;52.164;21.244;2023-03-24T12:37:41;16.80;99.90
49855;DHT22;35752;52.164;21.244;2023-03-24T12:43:23;17.10;99.90
49855;DHT22;35752;52.164;21.244;2023-03-24T12:45:52;17.30;99.90
49855;DHT22;35752;52.164;21.244;2023-03-24T12:48:33;17.40;99.90
49855;DHT22;35752;52.164;21.244;2023-03-24T12:54:35;17.60;99.90
49855;DHT22;35752;52.164;21.244;2023-03-24T12:57:10;17.70;99.90
49855;DHT22;35752;52.164;21.244;2023-03-24T13:00:04;17.80;99.90
49855;DHT22;35752;52.164;21.244;2023-03-24T13:02:59;17.90;99.90
49855;DHT22;35752;52.164;21.244;2023-03-24T13:05:30;18.00;99.90
49855;DHT22;35752;52.164;21.244;2023-03-24T13:07:59;18.00;99.90
49855;DHT22;35752;52.164;21.244;2023-03-24T13:10:28;18.10;99.90
49855;DHT22;35752;52.164;21.244;2023-03-24T13:13:22;18.20;99.90
49855;DHT22;35752;52.164;21.244;2023-03-24T13:15:57;18.30;99.90
49855;DHT22;35752;52.164;21.244;2023-03-24T13:18:27;18.40;99.90
49855;DHT22;35752;52.164;21.244;2023-03-24T13:20:59;18.40;99.90
49855;DHT22;35752;52.164;21.244;2023-03-24T13:26:19;18.40;99.90
49855;DHT22;35752;52.164;21.244;2023-03-24T13:28:59;18.50;99.90
49855;DHT22;35752;52.164;21.244;2023-03-24T13:31:39;18.50;99.90
49855;DHT22;35752;52.164;21.244;2023-03-24T13:34:10;18.60;99.90
49855;DHT22;35752;52.164;21.244;2023-03-24T13:36:47;18.50;99.90
49855;DHT22;35752;52.164;21.244;2023-03-24T13:39:17;18.50;99.90
49855;DHT22;35752;52.164;21.244;2023-03-24T13:41:52;18.50;99.90
49855;DHT22;35752;52.164;21.244;2023-03-24T13:47:08;18.40;99.90
49855;DHT22;35752;52.164;21.244;2023-03-24T13:49:36;18.40;99.90
49855;DHT22;35752;52.164;21.244;2023-03-24T13:52:04;18.40;99.30
49855;DHT22;35752;52.164;21.244;2023-03-24T13:54:32;18.40;99.90
49855;DHT22;35752;52.164;21.244;2023-03-24T13:57:10;18.40;99.80
49855;DHT22;35752;52.164;21.244;2023-03-24T14:07:44;18.70;99.00
49855;DHT22;35752;52.164;21.244;2023-03-24T14:15:34;18.70;98.20
49855;DHT22;35752;52.164;21.244;2023-03-24T14:18:15;18.70;97.80
49855;DHT22;35752;52.164;21.244;2023-03-24T14:21:04;18.70;97.70
49855;DHT22;35752;52.164;21.244;2023-03-24T14:26:28;18.70;97.30
49855;DHT22;35752;52.164;21.244;2023-03-24T14:28:56;18.80;97.30
49855;DHT22;35752;52.164;21.244;2023-03-24T14:31:30;18.70;97.40
49855;DHT22;35752;52.164;21.244;2023-03-24T14:36:37;18.80;97.10
49855;DHT22;35752;52.164;21.244;2023-03-24T14:41:51;18.80;97.40
49855;DHT22;35752;52.164;21.244;2023-03-24T14:44:50;18.70;97.40
49855;DHT22;35752;52.164;21.244;2023-03-24T14:47:25;18.80;97.10
49855;DHT22;35752;52.164;21.244;2023-03-24T14:49:53;18.70;96.30
49855;DHT22;35752;52.164;21.244;2023-03-24T14:52:49;18.80;96.80
49855;DHT22;35752;52.164;21.244;2023-03-24T14:55:16;18.80;96.30
49855;DHT22;35752;52.164;21.244;2023-03-24T14:57:46;18.80;95.90
49855;DHT22;35752;52.164;21.244;2023-03-24T15:00:35;18.80;95.60
49855;DHT22;35752;52.164;21.244;2023-03-24T15:05:49;18.80;94.90
49855;DHT22;35752;52.164;21.244;2023-03-24T15:08:18;18.80;94.30
49855;DHT22;35752;52.164;21.244;2023-03-24T15:10:52;18.70;94.60
49855;DHT22;35752;52.164;21.244;2023-03-24T15:15:56;18.70;94.40
49855;DHT22;35752;52.164;21.244;2023-03-24T15:18:23;18.60;94.20
49855;DHT22;35752;52.164;21.244;2023-03-24T15:20:50;18.60;94.00
49855;DHT22;35752;52.164;21.244;2023-03-24T15:23:18;18.60;94.50
49855;DHT22;35752;52.164;21.244;2023-03-24T15:25:44;18.50;94.20
49855;DHT22;35752;52.164;21.244;2023-03-24T15:28:25;18.50;94.60
49855;DHT22;35752;52.164;21.244;2023-03-24T15:30:52;18.50;94.60
49855;DHT22;35752;52.164;21.244;2023-03-24T15:33:19;18.30;94.80
49855;DHT22;35752;52.164;21.244;2023-03-24T15:35:46;18.30;94.80
49855;DHT22;35752;52.164;21.244;2023-03-24T15:38:20;18.30;94.90
49855;DHT22;35752;52.164;21.244;2023-03-24T15:41:02;18.30;95.00
49855;DHT22;35752;52.164;21.244;2023-03-24T15:43:30;18.30;94.60
49855;DHT22;35752;52.164;21.244;2023-03-24T15:45:57;18.20;95.00
49855;DHT22;35752;52.164;21.244;2023-03-24T15:48:32;18.20;94.80
49855;DHT22;35752;52.164;21.244;2023-03-24T15:51:04;18.20;95.00
49855;DHT22;35752;52.164;21.244;2023-03-24T15:53:56;18.10;95.20
49855;DHT22;35752;52.164;21.244;2023-03-24T15:56:28;18.10;95.40
49855;DHT22;35752;52.164;21.244;2023-03-24T15:59:05;18.00;95.50
49855;DHT22;35752;52.164;21.244;2023-03-24T16:01:31;18.00;95.70
49855;DHT22;35752;52.164;21.244;2023-03-24T16:04:10;17.90;96.00
49855;DHT22;35752;52.164;21.244;2023-03-24T16:06:39;17.80;96.40
49855;DHT22;35752;52.164;21.244;2023-03-24T16:09:12;17.80;96.30
49855;DHT22;35752;52.164;21.244;2023-03-24T16:11:38;17.80;96.30
49855;DHT22;35752;52.164;21.244;2023-03-24T16:14:24;17.70;96.70
49855;DHT22;35752;52.164;21.244;2023-03-24T16:16:55;17.70;97.00
49855;DHT22;35752;52.164;21.244;2023-03-24T16:19:22;17.70;97.40
49855;DHT22;35752;52.164;21.244;2023-03-24T16:21:47;17.60;98.00
49855;DHT22;35752;52.164;21.244;2023-03-24T16:24:13;17.60;98.30
49855;DHT22;35752;52.164;21.244;2023-03-24T16:26:39;17.50;98.90
49855;DHT22;35752;52.164;21.244;2023-03-24T16:31:43;17.40;99.30
49855;DHT22;35752;52.164;21.244;2023-03-24T16:34:08;17.50;99.40
49855;DHT22;35752;52.164;21.244;2023-03-24T16:36:34;17.40;99.50
49855;DHT22;35752;52.164;21.244;2023-03-24T16:39:00;17.30;99.60
49855;DHT22;35752;52.164;21.244;2023-03-24T16:41:27;17.30;99.10
49855;DHT22;35752;52.164;21.244;2023-03-24T16:43:53;17.30;99.90
49855;DHT22;35752;52.164;21.244;2023-03-24T16:48:51;17.20;99.90
49855;DHT22;35752;52.164;21.244;2023-03-24T16:51:17;17.20;99.90
49855;DHT22;35752;52.164;21.244;2023-03-24T16:53:45;17.30;99.90
49855;DHT22;35752;52.164;21.244;2023-03-24T16:56:16;17.20;99.90
49855;DHT22;35752;52.164;21.244;2023-03-24T16:58:42;17.20;99.90
49855;DHT22;35752;52.164;21.244;2023-03-24T17:01:17;17.10;99.90
49855;DHT22;35752;52.164;21.244;2023-03-24T17:04:01;16.90;99.90
49855;DHT22;35752;52.164;21.244;2023-03-24T17:06:30;16.80;99.90
49855;DHT22;35752;52.164;21.244;2023-03-24T17:08:56;16.70;99.90
49855;DHT22;35752;52.164;21.244;2023-03-24T17:11:28;16.60;99.90
49855;DHT22;35752;52.164;21.244;2023-03-24T17:13:54;16.40;99.90
49855;DHT22;35752;52.164;21.244;2023-03-24T17:16:23;16.40;99.90
49855;DHT22;35752;52.164;21.244;2023-03-24T17:18:50;16.40;99.90
49855;DHT22;35752;52.164;21.244;2023-03-24T17:21:16;16.40;99.90
49855;DHT22;35752;52.164;21.244;2023-03-24T17:23:44;16.40;99.90
49855;DHT22;35752;52.164;21.244;2023-03-24T17:26:11;16.20;99.90
49855;DHT22;35752;52.164;21.244;2023-03-24T17:28:37;16.30;99.90
49855;DHT22;35752;52.164;21.244;2023-03-24T17:31:03;16.20;99.90
49855;DHT22;35752;52.164;21.244;2023-03-24T17:33:29;16.00;99.90
49855;DHT22;35752;52.164;21.244;2023-03-24T17:35:54;15.90;99.90
49855;DHT22;35752;52.164;21.244;2023-03-24T17:38:21;15.80;99.90
49855;DHT22;35752;52.164;21.244;2023-03-24T17:40:46;15.70;99.90
49855;DHT22;35752;52.164;21.244;2023-03-24T17:43:12;15.50;99.90
49855;DHT22;35752;52.164;21.244;2023-03-24T17:45:40;15.30;99.90
49855;DHT22;35752;52.164;21.244;2023-03-24T17:48:06;15.20;99.90
49855;DHT22;35752;52.164;21.244;2023-03-24T17:50:31;15.00;99.90
49855;DHT22;35752;52.164;21.244;2023-03-24T17:52:57;14.90;99.90
49855;DHT22;35752;52.164;21.244;2023-03-24T17:55:25;14.80;99.90
49855;DHT22;35752;52.164;21.244;2023-03-24T17:57:51;14.80;99.90
49855;DHT22;35752;52.164;21.244;2023-03-24T18:00:17;14.70;99.90
49855;DHT22;35752;52.164;21.244;2023-03-24T18:02:43;14.70;99.90
49855;DHT22;35752;52.164;21.244;2023-03-24T18:05:09;14.60;99.90
49855;DHT22;35752;52.164;21.244;2023-03-24T18:07:37;14.50;99.90
49855;DHT22;35752;52.164;21.244;2023-03-24T18:10:03;14.50;99.90